Time;durP1;ratioP1;P1;durP2;ratioP2;P2;SDS_P1;SDS_P2;PMS_P1;PMS_P2;Temp;Humidity;BMP_temperature;BMP_pressure;BME280_temperature;BME280_humidity;BME280_pressure;Samples;Min_cycle;Max_cycle;Signal;HPM_P1;HPM_P2
2022/07/11 00:02:12;;;;;;;1.35;0.60;;;23.70;57.80;;;;;;6186388;23;20079;-73
2022/07/11 00:04:38;;;;;;;1.17;0.82;;;23.60;57.70;;;;;;6159865;23;20377;-73
2022/07/11 00:07:04;;;;;;;2.92;0.80;;;23.70;57.80;;;;;;6160004;23;20059;-73
2022/07/11 00:09:30;;;;;;;1.88;0.90;;;23.60;57.70;;;;;;6184659;23;20006;-73
2022/07/11 00:11:56;;;;;;;1.80;0.75;;;23.60;57.70;;;;;;6184658;23;20008;-73
2022/07/11 00:14:22;;;;;;;1.35;0.70;;;23.60;57.80;;;;;;6159603;23;20005;-73
2022/07/11 00:16:48;;;;;;;1.67;0.70;;;23.60;57.70;;;;;;6184667;23;20025;-73
2022/07/11 00:19:14;;;;;;;3.15;1.00;;;23.60;57.70;;;;;;6186018;23;20056;-73
2022/07/11 00:21:40;;;;;;;1.80;0.80;;;23.60;57.80;;;;;;6184427;23;20005;-73
2022/07/11 00:24:06;;;;;;;0.98;0.80;;;23.60;57.80;;;;;;6159905;23;20001;-73
2022/07/11 00:26:32;;;;;;;2.00;0.68;;;23.60;57.90;;;;;;6185969;23;20507;-73
2022/07/11 00:28:57;;;;;;;1.20;0.75;;;23.60;57.80;;;;;;6185546;23;20012;-73
2022/07/11 00:31:23;;;;;;;1.42;0.70;;;23.60;57.80;;;;;;6185918;23;20346;-73
2022/07/11 00:33:49;;;;;;;1.55;0.70;;;23.60;58.00;;;;;;6159558;23;20002;-73
2022/07/11 00:36:14;;;;;;;1.40;0.68;;;23.60;57.80;;;;;;6185818;23;20004;-73
2022/07/11 00:38:40;;;;;;;1.80;0.85;;;23.60;57.90;;;;;;6184338;23;20001;-73
2022/07/11 00:41:06;;;;;;;0.80;0.70;;;23.60;57.90;;;;;;6189257;23;20012;-73
2022/07/11 00:43:31;;;;;;;1.23;0.65;;;23.60;58.00;;;;;;6189146;23;20005;-73
2022/07/11 00:45:57;;;;;;;1.08;0.40;;;23.60;57.80;;;;;;6215786;23;20001;-73
2022/07/11 00:48:23;;;;;;;1.30;0.70;;;23.60;57.80;;;;;;6215622;23;20005;-73
2022/07/11 00:50:48;;;;;;;2.70;0.90;;;23.60;57.70;;;;;;6189374;23;20053;-73
2022/07/11 00:53:14;;;;;;;0.77;0.60;;;23.50;57.80;;;;;;6189077;23;20023;-73
2022/07/11 00:55:40;;;;;;;1.20;0.63;;;23.50;57.70;;;;;;6215712;23;19997;-73
2022/07/11 00:58:06;;;;;;;1.52;0.82;;;23.50;57.80;;;;;;6164200;23;20500;-73
2022/07/11 01:00:31;;;;;;;2.00;0.93;;;23.50;57.80;;;;;;6189152;23;20032;-73
2022/07/11 01:02:57;;;;;;;1.20;0.63;;;23.50;57.80;;;;;;6189123;23;20003;-73
2022/07/11 01:05:23;;;;;;;2.33;0.85;;;23.50;57.80;;;;;;6189211;23;19997;-73
2022/07/11 01:07:48;;;;;;;1.15;0.60;;;23.50;57.90;;;;;;6215449;23;19997;-73
2022/07/11 01:10:14;;;;;;;1.15;0.80;;;23.50;57.90;;;;;;6215644;23;20120;-73
2022/07/11 01:12:39;;;;;;;1.77;0.70;;;23.50;57.80;;;;;;6188767;23;20000;-73
2022/07/11 01:15:07;;;;;;;2.40;0.80;;;23.50;57.80;;;;;;6215517;23;20331;-73
2022/07/11 01:17:33;;;;;;;1.45;0.63;;;23.50;57.80;;;;;;6215339;23;20020;-73
2022/07/11 01:20:00;;;;;;;2.20;0.70;;;23.50;57.90;;;;;;6215767;23;20011;-73
2022/07/11 01:22:26;;;;;;;2.33;0.77;;;23.50;57.80;;;;;;6215321;23;20454;-73
2022/07/11 01:24:51;;;;;;;1.00;0.80;;;23.50;57.90;;;;;;6164414;23;20032;-73
2022/07/11 01:27:17;;;;;;;3.97;0.85;;;23.50;57.90;;;;;;6188629;23;20009;-73
2022/07/11 01:29:43;;;;;;;1.05;0.80;;;23.40;57.80;;;;;;6163895;23;20441;-73
2022/07/11 01:32:08;;;;;;;1.83;0.70;;;23.40;57.80;;;;;;6215695;23;19996;-73
2022/07/11 01:34:34;;;;;;;0.75;0.65;;;23.40;57.90;;;;;;6215205;23;20004;-73
2022/07/11 01:37:00;;;;;;;1.55;0.82;;;23.40;57.90;;;;;;6188823;23;20004;-73
2022/07/11 01:39:29;;;;;;;1.50;0.98;;;23.40;58.00;;;;;;6215062;23;20020;-73
2022/07/11 01:41:56;;;;;;;2.17;0.85;;;23.40;57.90;;;;;;6164938;23;20004;-73
2022/07/11 01:44:22;;;;;;;2.40;0.90;;;23.40;57.90;;;;;;6215051;23;20031;-73
2022/07/11 01:46:48;;;;;;;1.30;0.80;;;23.40;57.90;;;;;;6215216;23;20004;-73
2022/07/11 01:49:15;;;;;;;1.95;1.05;;;23.40;57.90;;;;;;6214880;23;20005;-73
2022/07/11 01:51:41;;;;;;;1.95;0.77;;;23.40;57.90;;;;;;6215090;23;20008;-73
2022/07/11 01:54:06;;;;;;;2.72;0.90;;;23.40;58.00;;;;;;6215277;23;20000;-73
2022/07/11 01:56:33;;;;;;;2.05;1.00;;;23.40;58.00;;;;;;6214588;23;20389;-73
2022/07/11 01:58:58;;;;;;;2.63;0.80;;;23.40;58.00;;;;;;6188515;23;20011;-73
2022/07/11 02:01:24;;;;;;;1.08;0.82;;;23.40;58.00;;;;;;6215225;23;20005;-73
2022/07/11 02:03:50;;;;;;;2.65;0.90;;;23.30;58.00;;;;;;6188325;23;20104;-73
2022/07/11 02:06:16;;;;;;;2.72;0.93;;;23.30;58.00;;;;;;6214855;23;20000;-73
2022/07/11 02:08:41;;;;;;;1.00;0.70;;;23.30;57.90;;;;;;6188435;23;20163;-73
2022/07/11 02:11:07;;;;;;;1.20;0.80;;;23.30;58.00;;;;;;6214726;23;20001;-73
2022/07/11 02:13:33;;;;;;;1.15;0.85;;;23.30;58.00;;;;;;6188501;23;20425;-73
2022/07/11 02:15:58;;;;;;;1.40;0.70;;;23.30;58.00;;;;;;6214897;23;20022;-73
2022/07/11 02:18:24;;;;;;;2.17;0.82;;;23.30;58.00;;;;;;6188328;23;20004;-73
2022/07/11 02:20:50;;;;;;;0.82;0.60;;;23.30;58.00;;;;;;6188654;23;20004;-73
2022/07/11 02:23:16;;;;;;;1.33;0.70;;;23.30;58.00;;;;;;6214844;23;20032;-73
2022/07/11 02:25:42;;;;;;;1.88;0.80;;;23.30;58.10;;;;;;6187882;23;20091;-73
2022/07/11 02:28:08;;;;;;;2.10;0.85;;;23.30;58.10;;;;;;6188559;23;20008;-73
2022/07/11 02:30:38;;;;;;;1.65;0.80;;;23.20;58.10;;;;;;6188327;23;20104;-73
2022/07/11 02:33:04;;;;;;;1.77;0.90;;;23.20;58.10;;;;;;6188338;23;20433;-73
2022/07/11 02:35:30;;;;;;;0.82;0.70;;;23.20;59.00;;;;;;6188335;23;20000;-73
2022/07/11 02:37:56;;;;;;;1.23;0.98;;;23.30;58.10;;;;;;6188018;23;20469;-73
2022/07/11 02:40:22;;;;;;;1.70;0.80;;;23.20;58.10;;;;;;6182897;23;20017;-73
2022/07/11 02:42:47;;;;;;;3.08;1.08;;;23.20;58.10;;;;;;6184730;23;20009;-73
2022/07/11 02:45:13;;;;;;;1.60;0.80;;;23.20;58.10;;;;;;6184598;23;20009;-73
2022/07/11 02:47:39;;;;;;;1.65;1.20;;;23.20;58.20;;;;;;6183033;23;20008;-73
2022/07/11 02:50:09;;;;;;;1.20;0.70;;;23.20;58.20;;;;;;6183206;23;20001;-73
2022/07/11 02:52:35;;;;;;;1.80;0.73;;;23.20;58.10;;;;;;6184343;23;20002;-73
2022/07/11 02:55:01;;;;;;;2.25;0.80;;;23.20;58.20;;;;;;6183248;23;20079;-73
2022/07/11 02:57:26;;;;;;;2.33;0.90;;;23.20;58.20;;;;;;6183229;23;20001;-73
2022/07/11 02:59:52;;;;;;;2.90;1.10;;;23.20;58.20;;;;;;6184590;23;20488;-73
2022/07/11 03:02:17;;;;;;;1.70;0.65;;;23.20;58.20;;;;;;6184811;23;20037;-73
2022/07/11 03:04:43;;;;;;;1.52;0.88;;;23.20;58.20;;;;;;6183188;23;20046;-73
2022/07/11 03:07:09;;;;;;;2.00;0.80;;;23.20;58.30;;;;;;6184442;23;20005;-73
2022/07/11 03:09:34;;;;;;;1.80;0.80;;;23.20;58.20;;;;;;6184632;23;20004;-73
2022/07/11 03:12:01;;;;;;;1.15;0.88;;;23.20;58.20;;;;;;6186033;23;20430;-73
2022/07/11 03:14:27;;;;;;;1.60;0.77;;;23.20;58.30;;;;;;6186506;23;20093;-73
2022/07/11 03:16:52;;;;;;;1.67;0.85;;;23.20;58.30;;;;;;6186691;23;20005;-73
2022/07/11 03:19:18;;;;;;;4.03;0.95;;;23.20;58.40;;;;;;6185115;23;20009;-73
2022/07/11 03:21:43;;;;;;;1.63;0.80;;;23.20;58.40;;;;;;6186309;23;20075;-73
2022/07/11 03:24:09;;;;;;;2.20;0.90;;;23.20;58.40;;;;;;6185121;23;20012;-73
2022/07/11 03:26:35;;;;;;;2.35;0.68;;;23.10;58.30;;;;;;6186665;23;20005;-72
2022/07/11 03:29:00;;;;;;;1.95;0.90;;;23.10;58.30;;;;;;6186318;23;20012;-73
2022/07/11 03:31:26;;;;;;;1.55;0.77;;;23.10;58.20;;;;;;6185088;23;20001;-73
2022/07/11 03:33:51;;;;;;;1.75;0.95;;;23.10;58.10;;;;;;6186432;23;20001;-73
2022/07/11 03:36:17;;;;;;;2.83;0.90;;;23.10;58.20;;;;;;6186648;23;20321;-73
2022/07/11 03:38:43;;;;;;;2.63;0.88;;;23.10;58.30;;;;;;6186232;23;20012;-73
2022/07/11 03:41:08;;;;;;;2.70;0.75;;;23.10;58.30;;;;;;6213777;23;20017;-73
2022/07/11 03:43:34;;;;;;;2.92;1.20;;;23.10;58.30;;;;;;6216478;23;20015;-73
2022/07/11 03:45:59;;;;;;;1.38;0.70;;;23.10;58.30;;;;;;6216443;23;20342;-73
2022/07/11 03:48:25;;;;;;;1.73;0.90;;;23.10;58.30;;;;;;6216296;23;20011;-73
2022/07/11 03:50:51;;;;;;;1.58;0.80;;;23.10;58.40;;;;;;6216087;23;20000;-73
2022/07/11 03:53:17;;;;;;;2.08;1.00;;;23.10;58.40;;;;;;6216187;23;20001;-73
2022/07/11 03:55:42;;;;;;;1.52;0.80;;;23.10;58.30;;;;;;6189776;23;20000;-73
2022/07/11 03:58:08;;;;;;;1.00;0.65;;;23.10;58.30;;;;;;6189726;23;20511;-73
2022/07/11 04:00:33;;;;;;;1.90;1.02;;;23.10;58.30;;;;;;6216200;23;20084;-73
2022/07/11 04:03:00;;;;;;;1.17;0.70;;;23.10;58.20;;;;;;6216126;23;20063;-73
2022/07/11 04:05:25;;;;;;;2.15;0.80;;;23.10;58.30;;;;;;6189682;23;20437;-73
2022/07/11 04:07:51;;;;;;;1.02;0.80;;;23.10;58.30;;;;;;6216025;23;20072;-73
2022/07/11 04:10:17;;;;;;;1.05;0.68;;;23.00;58.30;;;;;;6216235;23;20000;-73
2022/07/11 04:12:43;;;;;;;2.72;1.00;;;23.00;58.20;;;;;;6189583;23;20000;-73
2022/07/11 04:15:10;;;;;;;1.48;0.93;;;23.00;58.20;;;;;;6189747;23;19996;-73
2022/07/11 04:17:35;;;;;;;2.95;1.10;;;23.00;58.20;;;;;;6216168;23;20032;-73
2022/07/11 04:20:02;;;;;;;1.35;1.00;;;23.00;58.20;;;;;;6215981;23;20008;-73
2022/07/11 04:22:28;;;;;;;1.20;0.68;;;23.00;58.30;;;;;;6215779;23;20004;-73
2022/07/11 04:24:53;;;;;;;1.88;0.70;;;23.00;58.30;;;;;;6216030;23;20027;-73
2022/07/11 04:27:19;;;;;;;1.25;0.90;;;23.00;58.20;;;;;;6216048;23;20001;-73
2022/07/11 04:29:44;;;;;;;2.15;0.80;;;23.00;58.20;;;;;;6215792;23;20008;-73
2022/07/11 04:32:10;;;;;;;2.10;1.00;;;23.00;58.30;;;;;;6216228;23;20007;-73
2022/07/11 04:34:36;;;;;;;1.35;0.70;;;23.00;58.30;;;;;;6189093;23;20326;-73
2022/07/11 04:37:01;;;;;;;1.08;0.65;;;23.00;58.30;;;;;;6215810;23;20007;-73
2022/07/11 04:39:27;;;;;;;1.75;1.00;;;23.00;58.40;;;;;;6189476;23;20020;-73
2022/07/11 04:41:53;;;;;;;1.23;0.70;;;22.90;58.40;;;;;;6215881;23;20008;-73
2022/07/11 04:44:18;;;;;;;2.35;0.90;;;22.90;58.40;;;;;;6189456;23;20078;-73
2022/07/11 04:46:44;;;;;;;0.95;0.80;;;22.90;58.50;;;;;;6189227;23;20004;-73
2022/07/11 04:49:10;;;;;;;1.98;1.15;;;22.90;58.50;;;;;;6215550;23;20429;-73
2022/07/11 04:51:36;;;;;;;1.50;0.85;;;22.90;58.50;;;;;;6215823;23;20453;-73
2022/07/11 04:54:02;;;;;;;2.47;0.80;;;22.90;58.50;;;;;;6215782;23;20004;-73
2022/07/11 04:56:28;;;;;;;2.15;0.95;;;22.90;58.60;;;;;;6215719;23;20076;-73
2022/07/11 04:58:53;;;;;;;1.67;1.00;;;22.90;58.70;;;;;;6215561;23;20392;-73
2022/07/11 05:01:19;;;;;;;1.77;0.70;;;22.90;58.70;;;;;;6215715;23;20009;-73
2022/07/11 05:03:45;;;;;;;4.03;1.00;;;22.90;58.70;;;;;;6188937;23;20460;-73
2022/07/11 05:06:11;;;;;;;1.02;0.80;;;22.90;58.80;;;;;;6215842;23;20004;-73
2022/07/11 05:08:36;;;;;;;1.73;0.80;;;22.90;58.80;;;;;;6189032;23;20001;-73
2022/07/11 05:11:03;;;;;;;1.50;0.80;;;22.90;58.90;;;;;;6215510;23;20001;-73
2022/07/11 05:13:29;;;;;;;2.65;0.90;;;22.90;59.00;;;;;;6215525;23;20073;-73
2022/07/11 05:15:54;;;;;;;1.58;0.80;;;22.90;59.00;;;;;;6189104;23;20366;-73
2022/07/11 05:18:20;;;;;;;0.95;0.82;;;22.90;59.10;;;;;;6164064;23;20325;-73
2022/07/11 05:20:46;;;;;;;1.95;0.95;;;22.90;60.00;;;;;;6215313;23;20004;-73
2022/07/11 05:23:11;;;;;;;4.10;0.98;;;22.90;59.10;;;;;;6215408;23;20027;-73
2022/07/11 05:25:37;;;;;;;1.85;0.63;;;22.80;59.10;;;;;;6215416;23;20004;-73
2022/07/11 05:28:03;;;;;;;2.35;1.15;;;22.90;59.20;;;;;;6215480;23;20009;-73
2022/07/11 05:30:28;;;;;;;3.03;0.98;;;22.90;59.20;;;;;;6188712;23;20075;-73
2022/07/11 05:32:54;;;;;;;2.08;1.05;;;22.90;59.20;;;;;;6214938;23;20012;-73
2022/07/11 05:35:19;;;;;;;3.33;0.95;;;22.90;59.30;;;;;;6188441;23;19996;-73
2022/07/11 05:37:45;;;;;;;1.15;0.70;;;22.90;59.40;;;;;;6215177;23;20003;-73
2022/07/11 05:40:11;;;;;;;3.78;1.10;;;22.90;59.40;;;;;;6215169;23;20023;-73
2022/07/11 05:42:37;;;;;;;1.92;0.73;;;22.90;59.50;;;;;;6188614;23;20004;-73
2022/07/11 05:45:03;;;;;;;2.80;1.00;;;22.80;59.50;;;;;;6215227;23;20100;-73
2022/07/11 05:47:28;;;;;;;2.63;0.93;;;22.80;59.60;;;;;;6163973;23;20054;-73
2022/07/11 05:49:54;;;;;;;2.50;0.82;;;22.80;59.50;;;;;;6214959;23;20008;-73
2022/07/11 05:52:20;;;;;;;1.67;0.82;;;22.80;59.50;;;;;;6215188;23;20453;-73
2022/07/11 05:54:45;;;;;;;1.65;0.93;;;22.80;59.50;;;;;;6215245;23;19997;-73
2022/07/11 05:57:11;;;;;;;1.23;0.95;;;22.80;59.60;;;;;;6215175;23;19997;-73
2022/07/11 05:59:38;;;;;;;1.75;0.80;;;22.80;59.60;;;;;;6188650;23;20005;-73
2022/07/11 06:02:03;;;;;;;1.50;0.88;;;22.80;59.60;;;;;;6188564;23;20008;-73
2022/07/11 06:04:29;;;;;;;1.73;0.85;;;22.80;59.70;;;;;;6214866;23;20402;-73
2022/07/11 06:06:55;;;;;;;1.23;0.90;;;22.80;59.70;;;;;;6188483;23;20004;-73
2022/07/11 06:09:20;;;;;;;1.60;0.80;;;22.90;59.70;;;;;;6214964;23;20000;-73
2022/07/11 06:11:46;;;;;;;1.70;1.00;;;22.80;59.70;;;;;;6214962;23;20062;-73
2022/07/11 06:14:11;;;;;;;1.55;0.95;;;22.80;60.80;;;;;;6215141;23;19997;-73
2022/07/11 06:16:37;;;;;;;1.73;0.90;;;22.80;59.90;;;;;;6214679;23;20070;-73
2022/07/11 06:19:03;;;;;;;1.73;0.90;;;22.80;59.80;;;;;;6188326;23;20396;-73
2022/07/11 06:21:29;;;;;;;1.30;1.00;;;22.80;59.80;;;;;;6215062;23;20007;-73
2022/07/11 06:23:54;;;;;;;1.45;0.80;;;22.80;59.90;;;;;;6188361;23;20001;-73
2022/07/11 06:26:20;;;;;;;1.25;0.88;;;22.80;59.90;;;;;;6215010;23;20005;-73
2022/07/11 06:28:46;;;;;;;2.55;0.85;;;22.80;59.90;;;;;;6188523;23;20005;-73
2022/07/11 06:31:12;;;;;;;2.03;0.85;;;22.80;60.00;;;;;;6214386;23;20119;-73
2022/07/11 06:33:38;;;;;;;2.15;1.10;;;22.80;60.00;;;;;;6214869;23;20409;-73
2022/07/11 06:36:04;;;;;;;2.13;0.70;;;22.80;59.90;;;;;;6188176;23;20001;-73
2022/07/11 06:38:30;;;;;;;1.30;0.85;;;22.80;59.90;;;;;;6188222;23;20372;-73
2022/07/11 06:40:55;;;;;;;1.73;0.80;;;22.80;59.90;;;;;;6188231;23;20008;-73
2022/07/11 06:43:21;;;;;;;1.10;0.70;;;22.80;61.00;;;;;;6214830;23;20001;-73
2022/07/11 06:45:47;;;;;;;1.50;0.85;;;22.90;60.00;;;;;;6187885;23;20007;-73
2022/07/11 06:48:13;;;;;;;2.45;1.00;;;22.80;60.00;;;;;;6163744;23;20031;-73
2022/07/11 06:50:39;;;;;;;2.00;0.88;;;22.80;60.00;;;;;;6188101;23;20001;-73
2022/07/11 06:53:05;;;;;;;3.97;0.80;;;22.80;60.00;;;;;;6187936;23;20039;-73
2022/07/11 06:55:31;;;;;;;1.40;0.88;;;22.90;60.00;;;;;;6188456;23;20007;-73
2022/07/11 06:57:57;;;;;;;3.20;0.80;;;22.90;60.00;;;;;;6188264;23;20000;-73
2022/07/11 07:00:23;;;;;;;1.63;0.95;;;22.80;60.10;;;;;;6214380;23;20031;-73
2022/07/11 07:02:48;;;;;;;2.10;1.00;;;22.80;60.10;;;;;;6214633;23;20007;-73
2022/07/11 07:05:14;;;;;;;2.10;0.77;;;22.80;60.00;;;;;;6214603;23;20015;-73
2022/07/11 07:07:40;;;;;;;3.30;0.90;;;22.90;60.10;;;;;;6214538;23;20005;-73
2022/07/11 07:10:07;;;;;;;1.65;0.95;;;22.80;60.00;;;;;;6214536;23;20070;-73
2022/07/11 07:12:36;;;;;;;1.00;0.80;;;22.80;60.10;;;;;;6214769;23;20194;-73
2022/07/11 07:15:02;;;;;;;1.90;0.93;;;22.80;60.10;;;;;;6163668;23;19997;-73
2022/07/11 07:17:28;;;;;;;1.48;0.90;;;22.80;60.10;;;;;;6214928;23;20008;-73
2022/07/11 07:19:53;;;;;;;1.52;0.90;;;22.90;60.10;;;;;;6214361;23;20047;-73
2022/07/11 07:22:19;;;;;;;0.80;0.60;;;22.90;60.20;;;;;;6214600;23;20000;-73
2022/07/11 07:24:45;;;;;;;1.42;0.85;;;22.80;60.10;;;;;;6214689;23;20401;-73
2022/07/11 07:27:11;;;;;;;2.13;1.02;;;22.90;60.20;;;;;;6187909;23;20084;-73
2022/07/11 07:29:36;;;;;;;1.50;0.82;;;22.90;60.20;;;;;;6187657;23;20011;-73
2022/07/11 07:32:02;;;;;;;1.17;0.60;;;22.90;60.10;;;;;;6214481;23;19996;-73
2022/07/11 07:34:28;;;;;;;1.23;0.80;;;22.90;60.10;;;;;;6214833;23;20004;-73
2022/07/11 07:36:53;;;;;;;3.75;0.80;;;22.90;60.10;;;;;;6214404;23;20334;-73
2022/07/11 07:39:19;;;;;;;0.70;0.60;;;22.90;60.10;;;;;;6214327;23;20013;-73
2022/07/11 07:41:45;;;;;;;1.60;1.00;;;22.90;60.10;;;;;;6214332;23;20340;-73
2022/07/11 07:44:10;;;;;;;1.23;0.80;;;22.90;60.10;;;;;;6214154;23;20000;-73
2022/07/11 07:46:36;;;;;;;1.15;0.88;;;22.90;60.10;;;;;;6188069;23;20004;-73
2022/07/11 07:49:02;;;;;;;1.23;0.70;;;22.90;60.10;;;;;;6214273;23;20035;-73
2022/07/11 07:51:28;;;;;;;1.05;0.68;;;22.90;60.10;;;;;;6214565;23;20007;-73
2022/07/11 07:53:54;;;;;;;1.33;0.80;;;22.90;60.10;;;;;;6214152;23;20435;-73
2022/07/11 07:56:20;;;;;;;0.85;0.70;;;22.90;60.10;;;;;;6214410;23;20000;-73
2022/07/11 07:58:46;;;;;;;1.15;0.65;;;22.90;60.10;;;;;;6216031;23;20004;-73
2022/07/11 08:03:55;;;;;;;0.63;0.60;;;22.90;60.20;;;;;;6216336;23;20011;-73
2022/07/11 08:06:21;;;;;;;1.50;0.70;;;22.90;60.20;;;;;;6216230;23;20028;-73
2022/07/11 08:08:47;;;;;;;1.30;0.80;;;22.90;60.00;;;;;;6216317;23;20055;-73
2022/07/11 08:11:13;;;;;;;1.58;0.63;;;22.90;60.00;;;;;;6189854;23;20340;-73
2022/07/11 08:13:38;;;;;;;0.77;0.75;;;22.90;60.00;;;;;;6164677;23;20054;-73
2022/07/11 08:16:06;;;;;;;0.73;0.70;;;22.90;60.00;;;;;;6216100;23;20118;-73
2022/07/11 08:18:53;;;;;;;0.80;0.65;;;22.90;60.00;;;;;;6189958;23;20000;-73
2022/07/11 08:26:46;;;;;;;0.90;0.65;;;22.90;59.90;;;;;;6193472;23;20344;-73
2022/07/11 08:29:12;;;;;;;1.20;0.73;;;23.00;60.10;;;;;;6215978;23;20488;-73
2022/07/11 08:31:37;;;;;;;0.88;0.60;;;23.00;60.10;;;;;;6215957;23;20015;-73
2022/07/11 08:34:03;;;;;;;1.95;0.90;;;23.00;60.10;;;;;;6216023;23;20004;-73
2022/07/11 08:36:30;;;;;;;2.08;0.80;;;23.00;60.10;;;;;;6215930;23;20068;-73
2022/07/11 08:38:55;;;;;;;1.52;0.65;;;23.00;60.00;;;;;;6216008;23;20011;-73
2022/07/11 08:41:21;;;;;;;0.98;0.60;;;23.00;60.10;;;;;;6215500;23;20361;-73
2022/07/11 08:43:47;;;;;;;1.77;0.75;;;23.00;60.10;;;;;;6215632;23;20005;-73
2022/07/11 08:46:13;;;;;;;1.58;0.60;;;23.00;60.00;;;;;;6216022;23;20441;-73
2022/07/11 08:48:40;;;;;;;1.25;0.85;;;23.00;60.00;;;;;;6164677;23;20016;-73
2022/07/11 08:51:07;;;;;;;3.38;0.73;;;23.00;59.90;;;;;;6164858;23;20003;-73
2022/07/11 08:53:33;;;;;;;0.70;0.50;;;23.00;59.90;;;;;;6215858;23;20066;-73
2022/07/11 08:55:59;;;;;;;1.10;0.90;;;23.00;59.90;;;;;;6189074;23;20376;-73
2022/07/11 08:58:25;;;;;;;0.75;0.60;;;23.00;59.80;;;;;;6164529;23;20361;-73
2022/07/11 09:00:51;;;;;;;2.30;0.80;;;23.00;59.80;;;;;;6189336;23;20028;-73
2022/07/11 09:03:17;;;;;;;2.50;0.80;;;23.00;59.60;;;;;;6189112;23;19997;-73
2022/07/11 09:08:28;;;;;;;3.53;0.82;;;23.00;59.60;;;;;;6171270;23;20468;-73
2022/07/11 09:11:12;;;;;;;1.85;0.80;;;23.00;59.70;;;;;;6189116;23;20004;-73
2022/07/11 09:13:38;;;;;;;1.00;0.50;;;23.10;59.70;;;;;;6215405;23;20004;-73
2022/07/11 09:16:05;;;;;;;0.60;0.50;;;23.00;59.70;;;;;;6189218;23;20043;-73
2022/07/11 09:27:47;;;;;;;1.50;0.82;;;23.10;59.80;;;;;;6215533;23;20020;-73
2022/07/11 09:30:20;;;;;;;0.98;0.65;;;23.10;60.00;;;;;;6188793;23;20008;-73
2022/07/11 09:33:09;;;;;;;1.40;0.90;;;23.10;59.80;;;;;;6189188;23;19997;-73
2022/07/11 09:35:36;;;;;;;1.40;0.60;;;23.10;59.80;;;;;;6191736;23;20076;-73
2022/07/11 09:38:06;;;;;;;1.85;0.68;;;23.10;59.80;;;;;;6164259;23;19996;-73
2022/07/11 09:40:32;;;;;;;2.28;0.70;;;23.10;59.80;;;;;;6163842;23;20020;-73
2022/07/11 09:42:58;;;;;;;0.70;0.52;;;23.10;59.80;;;;;;6188753;23;20323;-73
2022/07/11 09:48:32;;;;;;;1.33;0.60;;;23.10;59.90;;;;;;6192823;23;20063;-73
2022/07/11 09:51:02;;;;;;;1.33;0.57;;;23.10;60.00;;;;;;6215227;23;20013;-73
2022/07/11 09:53:27;;;;;;;0.60;0.60;;;23.10;60.00;;;;;;6189693;23;20001;-73
2022/07/11 09:55:53;;;;;;;0.50;0.50;;;23.10;60.10;;;;;;6188615;23;20345;-73
2022/07/11 09:58:21;;;;;;;0.60;0.60;;;23.10;60.00;;;;;;6214913;23;20027;-73
2022/07/11 10:01:05;;;;;;;1.02;0.60;;;23.10;60.00;;;;;;6189556;23;20024;-73
2022/07/11 10:03:31;;;;;;;0.70;0.52;;;23.10;60.10;;;;;;6215165;23;19996;-73
2022/07/11 10:05:57;;;;;;;1.17;0.60;;;23.20;60.00;;;;;;6215017;23;20050;-73
2022/07/11 10:08:22;;;;;;;1.33;0.70;;;23.10;60.10;;;;;;6214749;23;20059;-73
2022/07/11 10:10:48;;;;;;;0.82;0.50;;;23.20;60.00;;;;;;6188673;23;20433;-73
2022/07/11 10:13:13;;;;;;;1.05;0.75;;;23.20;60.00;;;;;;6163473;23;20015;-73
2022/07/11 10:15:42;;;;;;;0.45;0.40;;;23.20;60.00;;;;;;6163798;23;19997;-73
2022/07/11 10:18:26;;;;;;;1.00;0.55;;;23.20;60.00;;;;;;6165145;23;20124;-73
2022/07/11 10:21:04;;;;;;;0.63;0.50;;;23.20;60.00;;;;;;6214873;23;20008;-73
2022/07/11 10:23:37;;;;;;;1.27;0.50;;;23.20;59.90;;;;;;6188384;23;20433;-73
2022/07/11 10:26:30;;;;;;;1.23;0.55;;;23.20;59.70;;;;;;6188641;23;20389;-73
2022/07/11 10:29:05;;;;;;;0.73;0.55;;;23.20;59.70;;;;;;6093713;23;20057;-73
2022/07/11 10:31:31;;;;;;;2.63;0.73;;;23.20;59.60;;;;;;6070566;23;20006;-73
2022/07/11 10:34:06;;;;;;;2.78;0.60;;;23.20;59.40;;;;;;6069810;23;20415;-73
2022/07/11 10:36:41;;;;;;;0.90;0.60;;;23.20;59.40;;;;;;6070745;23;20010;-73
2022/07/11 10:39:21;;;;;;;0.70;0.60;;;23.20;59.50;;;;;;6069576;23;20014;-73
2022/07/11 10:41:47;;;;;;;0.75;0.55;;;23.20;59.60;;;;;;6070243;23;20014;-73
2022/07/11 10:44:12;;;;;;;0.63;0.60;;;23.20;59.50;;;;;;6069885;23;20041;-73
2022/07/11 10:46:38;;;;;;;0.98;0.40;;;23.20;59.40;;;;;;6093608;23;20061;-73
2022/07/11 10:49:15;;;;;;;1.73;0.80;;;23.20;59.40;;;;;;6069691;23;20399;-73
2022/07/11 10:51:41;;;;;;;1.77;1.23;;;23.20;59.40;;;;;;6093524;23;20003;-73
2022/07/11 10:54:18;;;;;;;1.42;0.95;;;23.30;59.50;;;;;;6093678;23;20007;-73
2022/07/11 10:57:02;;;;;;;1.15;0.90;;;23.30;59.60;;;;;;6093651;23;20082;-73
2022/07/11 10:59:28;;;;;;;0.70;0.70;;;23.30;59.60;;;;;;6093721;23;20011;-73
2022/07/11 11:02:04;;;;;;;0.98;0.98;;;23.30;59.60;;;;;;6069671;23;20018;-73
2022/07/11 11:04:47;;;;;;;0.75;0.75;;;23.30;59.60;;;;;;6069593;23;20367;-73
2022/07/11 11:07:38;;;;;;;0.82;0.70;;;23.30;59.60;;;;;;6187781;23;20001;-73
2022/07/11 11:10:38;;;;;;;1.10;0.70;;;23.30;59.50;;;;;;6188032;23;20011;-73
2022/07/11 11:13:07;;;;;;;0.65;0.63;;;23.30;59.60;;;;;;6214582;23;20001;-73
2022/07/11 11:15:32;;;;;;;1.38;0.80;;;23.30;59.40;;;;;;6214729;23;19997;-73
2022/07/11 11:18:05;;;;;;;0.80;0.68;;;23.30;59.30;;;;;;6214482;23;20000;-73
2022/07/11 11:20:31;;;;;;;0.80;0.60;;;23.40;59.20;;;;;;6164221;23;20012;-73
2022/07/11 11:23:10;;;;;;;0.65;0.60;;;23.40;59.40;;;;;;6188335;23;20005;-73
2022/07/11 11:25:35;;;;;;;0.70;0.60;;;23.40;59.30;;;;;;6188232;23;20005;-73
2022/07/11 11:28:04;;;;;;;0.70;0.70;;;23.40;59.40;;;;;;6214671;23;20027;-73
2022/07/11 11:30:31;;;;;;;0.63;0.55;;;23.30;59.30;;;;;;6214168;23;20380;-73
2022/07/11 11:32:57;;;;;;;0.70;0.68;;;23.40;59.50;;;;;;6215916;23;20051;-73
2022/07/11 11:35:23;;;;;;;0.70;0.70;;;23.40;59.40;;;;;;6164920;23;20004;-73
2022/07/11 11:37:49;;;;;;;1.63;0.65;;;23.30;59.50;;;;;;6190339;23;20138;-73
2022/07/11 11:40:14;;;;;;;0.63;0.63;;;23.40;59.60;;;;;;6216206;23;20017;-73
2022/07/11 11:42:40;;;;;;;0.60;0.50;;;23.40;59.60;;;;;;6216536;23;20004;-73
2022/07/11 11:45:07;;;;;;;0.68;0.50;;;23.40;59.60;;;;;;6189743;23;20005;-73
2022/07/11 11:47:35;;;;;;;1.90;0.75;;;23.40;59.80;;;;;;6216510;23;20000;-73
2022/07/11 11:50:01;;;;;;;0.73;0.50;;;23.40;59.70;;;;;;6189784;23;20071;-73
2022/07/11 11:52:27;;;;;;;0.40;0.40;;;23.40;59.70;;;;;;6189748;23;20027;-73
2022/07/11 11:54:55;;;;;;;1.58;0.60;;;23.40;59.70;;;;;;6216448;23;20028;-73
2022/07/11 11:57:22;;;;;;;0.63;0.60;;;23.40;59.70;;;;;;6165601;23;19996;-73
2022/07/11 11:59:49;;;;;;;0.95;0.60;;;23.40;59.70;;;;;;6165277;23;20119;-73
2022/07/11 12:02:21;;;;;;;0.52;0.50;;;23.50;59.70;;;;;;6216185;23;20010;-73
2022/07/11 12:04:46;;;;;;;1.00;0.60;;;23.40;59.70;;;;;;6164854;23;20051;-73
2022/07/11 12:07:12;;;;;;;0.50;0.50;;;23.50;59.70;;;;;;6216028;23;20004;-73
2022/07/11 12:09:47;;;;;;;0.40;0.40;;;23.50;59.80;;;;;;6216102;23;20141;-73
2022/07/11 12:12:49;;;;;;;0.50;0.50;;;23.50;59.90;;;;;;6216219;23;20079;-73
2022/07/11 12:15:34;;;;;;;0.32;0.32;;;23.50;59.70;;;;;;6197352;23;20005;-73
2022/07/11 12:18:01;;;;;;;1.05;0.60;;;23.50;59.80;;;;;;6190350;23;20000;-73
2022/07/11 12:20:37;;;;;;;0.43;0.32;;;23.50;59.80;;;;;;6215771;23;20000;-73
2022/07/11 12:23:07;;;;;;;0.43;0.43;;;23.50;59.70;;;;;;6189557;23;20437;-73
2022/07/11 12:25:33;;;;;;;0.55;0.52;;;23.50;59.50;;;;;;6189550;23;20000;-73
2022/07/11 12:27:59;;;;;;;0.75;0.50;;;23.50;59.60;;;;;;6164894;23;20011;-73
2022/07/11 12:30:25;;;;;;;1.92;0.50;;;23.50;59.90;;;;;;6215704;23;20349;-73
2022/07/11 12:33:13;;;;;;;0.70;0.50;;;23.50;59.70;;;;;;6189366;23;20054;-73
2022/07/11 12:35:58;;;;;;;0.50;0.50;;;23.50;59.80;;;;;;6165943;23;20012;-73
2022/07/11 12:38:24;;;;;;;0.50;0.50;;;23.60;59.80;;;;;;6215736;23;20448;-73
2022/07/11 12:41:03;;;;;;;0.75;0.50;;;23.50;59.90;;;;;;6189213;23;20059;-73
2022/07/11 12:46:42;;;;;;;0.52;0.45;;;23.60;60.00;;;;;;6205883;23;20015;-73
2022/07/11 12:49:09;;;;;;;0.30;0.30;;;23.60;60.00;;;;;;6188921;23;20028;-73
2022/07/11 12:51:40;;;;;;;2.75;0.70;;;23.60;60.00;;;;;;6215601;23;20031;-73
2022/07/11 12:54:16;;;;;;;0.85;0.50;;;23.60;60.00;;;;;;6189481;23;20495;-73
2022/07/11 12:56:54;;;;;;;0.63;0.60;;;23.60;60.00;;;;;;6189658;23;20079;-73
2022/07/11 12:59:22;;;;;;;0.30;0.30;;;23.60;60.00;;;;;;6164451;23;20001;-73
2022/07/11 13:02:03;;;;;;;0.50;0.40;;;23.60;60.00;;;;;;6215343;23;20322;-73
2022/07/11 13:04:35;;;;;;;0.93;0.40;;;23.60;60.00;;;;;;6188912;23;20448;-73
2022/07/11 13:10:05;;;;;;;0.50;0.40;;;23.70;60.20;;;;;;6215495;23;20409;-73
2022/07/11 13:12:31;;;;;;;0.80;0.50;;;23.70;60.10;;;;;;6189578;23;20005;-73
2022/07/11 13:15:16;;;;;;;1.17;0.60;;;23.70;60.20;;;;;;6189109;23;20556;-73
2022/07/11 13:17:51;;;;;;;0.40;0.40;;;23.70;60.10;;;;;;6192656;23;20034;-73
2022/07/11 13:20:22;;;;;;;0.50;0.50;;;23.70;60.20;;;;;;6189107;23;20471;-73